sensor_id;sensor_type;location;lat;lon;timestamp;pressure;altitude;pressure_sealevel;temperature;humidity
43741;BME280;29352;48.708;9.290;2022-09-19T00:01:47;97808.56;;;8.40;63.16
43741;BME280;29352;48.708;9.290;2022-09-19T00:04:17;97817.13;;;8.88;61.52
43741;BME280;29352;48.708;9.290;2022-09-19T00:06:47;97808.94;;;9.55;60.01
43741;BME280;29352;48.708;9.290;2022-09-19T00:09:17;97803.28;;;9.83;59.21
43741;BME280;29352;48.708;9.290;2022-09-19T00:11:46;97806.75;;;9.32;60.44
43741;BME280;29352;48.708;9.290;2022-09-19T00:14:15;97816.19;;;9.34;60.08
43741;BME280;29352;48.708;9.290;2022-09-19T00:16:45;97813.41;;;9.03;60.03
43741;BME280;29352;48.708;9.290;2022-09-19T00:19:15;97816.28;;;9.59;59.02
43741;BME280;29352;48.708;9.290;2022-09-19T00:21:45;97819.19;;;8.86;60.22
43741;BME280;29352;48.708;9.290;2022-09-19T00:24:15;97820.06;;;9.38;59.53
43741;BME280;29352;48.708;9.290;2022-09-19T00:27:01;97824.91;;;9.68;58.17
43741;BME280;29352;48.708;9.290;2022-09-19T00:29:31;97829.41;;;8.96;59.34
43741;BME280;29352;48.708;9.290;2022-09-19T00:31:58;97827.38;;;9.63;58.46
43741;BME280;29352;48.708;9.290;2022-09-19T00:34:24;97822.44;;;8.95;60.06
43741;BME280;29352;48.708;9.290;2022-09-19T00:36:50;97822.44;;;8.95;60.00
43741;BME280;29352;48.708;9.290;2022-09-19T00:39:18;97818.13;;;8.94;60.27
43741;BME280;29352;48.708;9.290;2022-09-19T00:41:45;97826.56;;;8.58;60.87
43741;BME280;29352;48.708;9.290;2022-09-19T00:46:53;97834.91;;;8.08;60.95
43741;BME280;29352;48.708;9.290;2022-09-19T00:49:28;97834.50;;;8.18;61.25
43741;BME280;29352;48.708;9.290;2022-09-19T00:52:06;97830.56;;;8.00;61.48
43741;BME280;29352;48.708;9.290;2022-09-19T00:54:40;97832.69;;;8.38;60.55
43741;BME280;29352;48.708;9.290;2022-09-19T00:57:11;97841.47;;;8.39;60.23
43741;BME280;29352;48.708;9.290;2022-09-19T00:59:42;97850.59;;;7.96;60.74
43741;BME280;29352;48.708;9.290;2022-09-19T01:02:12;97850.69;;;8.36;59.89
43741;BME280;29352;48.708;9.290;2022-09-19T01:04:40;97850.28;;;8.52;58.90
43741;BME280;29352;48.708;9.290;2022-09-19T01:10:18;97857.59;;;8.11;59.97
43741;BME280;29352;48.708;9.290;2022-09-19T01:13:15;97862.06;;;8.03;59.96
43741;BME280;29352;48.708;9.290;2022-09-19T01:16:06;97864.38;;;8.20;59.15
43741;BME280;29352;48.708;9.290;2022-09-19T01:18:47;97866.22;;;8.52;58.44
43741;BME280;29352;48.708;9.290;2022-09-19T01:21:37;97867.66;;;8.62;57.93
43741;BME280;29352;48.708;9.290;2022-09-19T01:29:53;97869.53;;;8.68;58.04
43741;BME280;29352;48.708;9.290;2022-09-19T01:32:35;97880.56;;;8.45;58.32
43741;BME280;29352;48.708;9.290;2022-09-19T01:35:11;97885.78;;;7.98;59.44
43741;BME280;29352;48.708;9.290;2022-09-19T01:37:57;97888.91;;;8.15;58.99
43741;BME280;29352;48.708;9.290;2022-09-19T01:40:29;97888.22;;;7.93;59.66
43741;BME280;29352;48.708;9.290;2022-09-19T01:42:56;97887.41;;;7.99;59.18
43741;BME280;29352;48.708;9.290;2022-09-19T01:45:33;97887.66;;;7.56;59.60
43741;BME280;29352;48.708;9.290;2022-09-19T01:48:22;97883.25;;;7.83;59.01
43741;BME280;29352;48.708;9.290;2022-09-19T01:51:29;97885.19;;;7.62;59.63
43741;BME280;29352;48.708;9.290;2022-09-19T02:00:03;97902.72;;;7.97;58.39
43741;BME280;29352;48.708;9.290;2022-09-19T02:08:18;97902.75;;;7.63;59.39
43741;BME280;29352;48.708;9.290;2022-09-19T02:10:53;97903.16;;;7.94;58.71
43741;BME280;29352;48.708;9.290;2022-09-19T02:13:28;97893.63;;;7.72;59.33
43741;BME280;29352;48.708;9.290;2022-09-19T02:16:05;97896.38;;;7.50;59.67
43741;BME280;29352;48.708;9.290;2022-09-19T02:18:47;97902.84;;;7.06;60.50
43741;BME280;29352;48.708;9.290;2022-09-19T02:21:31;97904.34;;;7.85;59.38
43741;BME280;29352;48.708;9.290;2022-09-19T02:24:06;97898.69;;;7.60;59.57
43741;BME280;29352;48.708;9.290;2022-09-19T02:26:41;97900.72;;;7.58;59.75
43741;BME280;29352;48.708;9.290;2022-09-19T02:29:14;97895.22;;;7.66;59.47
43741;BME280;29352;48.708;9.290;2022-09-19T02:31:47;97890.53;;;7.68;59.63
43741;BME280;29352;48.708;9.290;2022-09-19T02:34:14;97901.13;;;7.62;59.56
43741;BME280;29352;48.708;9.290;2022-09-19T02:39:38;97896.56;;;7.77;59.01
43741;BME280;29352;48.708;9.290;2022-09-19T02:42:22;97899.09;;;7.22;60.20
43741;BME280;29352;48.708;9.290;2022-09-19T02:45:25;97904.06;;;7.32;60.27
43741;BME280;29352;48.708;9.290;2022-09-19T02:48:20;97909.16;;;7.33;59.75
43741;BME280;29352;48.708;9.290;2022-09-19T02:50:56;97905.13;;;7.44;59.96
43741;BME280;29352;48.708;9.290;2022-09-19T02:53:33;97912.94;;;7.52;59.38
43741;BME280;29352;48.708;9.290;2022-09-19T02:56:04;97906.66;;;8.01;58.40
43741;BME280;29352;48.708;9.290;2022-09-19T02:58:37;97907.66;;;7.59;59.25
43741;BME280;29352;48.708;9.290;2022-09-19T03:01:19;97897.63;;;7.54;59.19
43741;BME280;29352;48.708;9.290;2022-09-19T03:03:54;97896.81;;;7.54;59.36
43741;BME280;29352;48.708;9.290;2022-09-19T03:06:47;97908.31;;;7.26;59.87
43741;BME280;29352;48.708;9.290;2022-09-19T03:09:22;97905.69;;;7.33;59.57
43741;BME280;29352;48.708;9.290;2022-09-19T03:15:06;97911.19;;;7.03;60.35
43741;BME280;29352;48.708;9.290;2022-09-19T03:17:38;97906.38;;;6.85;60.73
43741;BME280;29352;48.708;9.290;2022-09-19T03:20:09;97903.28;;;7.10;60.15
43741;BME280;29352;48.708;9.290;2022-09-19T03:22:40;97911.63;;;7.07;60.01
43741;BME280;29352;48.708;9.290;2022-09-19T03:25:10;97912.88;;;7.04;59.91
43741;BME280;29352;48.708;9.290;2022-09-19T03:27:36;97904.06;;;7.04;60.18
43741;BME280;29352;48.708;9.290;2022-09-19T03:30:05;97905.88;;;7.31;59.71
43741;BME280;29352;48.708;9.290;2022-09-19T03:32:34;97905.59;;;7.20;59.68
43741;BME280;29352;48.708;9.290;2022-09-19T03:35:00;97910.34;;;6.96;60.35
43741;BME280;29352;48.708;9.290;2022-09-19T03:37:28;97914.66;;;6.97;60.39
43741;BME280;29352;48.708;9.290;2022-09-19T03:39:54;97918.25;;;7.18;60.14
43741;BME280;29352;48.708;9.290;2022-09-19T03:42:19;97913.75;;;6.90;60.25
43741;BME280;29352;48.708;9.290;2022-09-19T03:44:45;97920.16;;;7.30;59.81
43741;BME280;29352;48.708;9.290;2022-09-19T03:47:11;97925.69;;;7.64;59.18
43741;BME280;29352;48.708;9.290;2022-09-19T03:49:37;97932.41;;;7.31;59.80
43741;BME280;29352;48.708;9.290;2022-09-19T03:52:02;97928.53;;;7.69;59.25
43741;BME280;29352;48.708;9.290;2022-09-19T03:54:27;97928.66;;;7.82;59.02
43741;BME280;29352;48.708;9.290;2022-09-19T03:56:53;97928.13;;;7.65;59.50
43741;BME280;29352;48.708;9.290;2022-09-19T03:59:19;97931.56;;;7.59;59.76
43741;BME280;29352;48.708;9.290;2022-09-19T04:01:45;97938.50;;;7.88;59.26
43741;BME280;29352;48.708;9.290;2022-09-19T04:04:12;97932.31;;;7.81;59.80
43741;BME280;29352;48.708;9.290;2022-09-19T04:06:37;97934.00;;;7.95;59.36
43741;BME280;29352;48.708;9.290;2022-09-19T04:09:03;97936.41;;;7.77;59.18
43741;BME280;29352;48.708;9.290;2022-09-19T04:11:29;97939.91;;;7.84;59.74
43741;BME280;29352;48.708;9.290;2022-09-19T04:13:55;97930.06;;;7.78;59.66
43741;BME280;29352;48.708;9.290;2022-09-19T04:16:22;97928.94;;;7.66;60.02
43741;BME280;29352;48.708;9.290;2022-09-19T04:18:50;97936.56;;;7.75;59.76
43741;BME280;29352;48.708;9.290;2022-09-19T04:21:16;97941.06;;;8.23;59.21
43741;BME280;29352;48.708;9.290;2022-09-19T04:23:43;97941.97;;;7.54;60.32
43741;BME280;29352;48.708;9.290;2022-09-19T04:26:11;97940.75;;;7.91;59.63
43741;BME280;29352;48.708;9.290;2022-09-19T04:28:38;97955.75;;;7.71;60.23
43741;BME280;29352;48.708;9.290;2022-09-19T04:31:07;97948.66;;;8.46;59.00
43741;BME280;29352;48.708;9.290;2022-09-19T04:33:35;97949.28;;;8.41;58.72
43741;BME280;29352;48.708;9.290;2022-09-19T04:36:02;97962.00;;;8.59;58.46
43741;BME280;29352;48.708;9.290;2022-09-19T04:38:30;97970.19;;;8.51;59.05
43741;BME280;29352;48.708;9.290;2022-09-19T04:40:57;97960.44;;;8.91;58.25
43741;BME280;29352;48.708;9.290;2022-09-19T04:43:24;97973.56;;;8.25;59.24
43741;BME280;29352;48.708;9.290;2022-09-19T04:45:52;97959.81;;;8.76;58.13
43741;BME280;29352;48.708;9.290;2022-09-19T04:48:20;97967.69;;;8.36;59.21
43741;BME280;29352;48.708;9.290;2022-09-19T04:50:48;97963.09;;;8.10;59.67
43741;BME280;29352;48.708;9.290;2022-09-19T04:53:21;97955.91;;;8.72;58.98
43741;BME280;29352;48.708;9.290;2022-09-19T04:55:52;97963.28;;;8.83;58.47
43741;BME280;29352;48.708;9.290;2022-09-19T04:58:20;97968.53;;;8.43;58.73
43741;BME280;29352;48.708;9.290;2022-09-19T05:00:52;97973.44;;;8.46;58.48
43741;BME280;29352;48.708;9.290;2022-09-19T05:03:20;97978.22;;;8.97;57.96
43741;BME280;29352;48.708;9.290;2022-09-19T05:05:51;97980.63;;;8.66;58.37
43741;BME280;29352;48.708;9.290;2022-09-19T05:08:23;97978.19;;;8.71;58.62
43741;BME280;29352;48.708;9.290;2022-09-19T05:10:54;97986.97;;;8.65;58.46
43741;BME280;29352;48.708;9.290;2022-09-19T05:13:22;97996.88;;;9.04;57.71
43741;BME280;29352;48.708;9.290;2022-09-19T05:15:57;97999.53;;;9.51;56.41
43741;BME280;29352;48.708;9.290;2022-09-19T05:18:25;98000.34;;;8.98;58.13
43741;BME280;29352;48.708;9.290;2022-09-19T05:20:51;98010.84;;;8.38;59.11
43741;BME280;29352;48.708;9.290;2022-09-19T05:23:23;98012.41;;;8.87;58.71
43741;BME280;29352;48.708;9.290;2022-09-19T05:25:51;98013.91;;;9.36;57.04
43741;BME280;29352;48.708;9.290;2022-09-19T05:28:21;98014.06;;;8.82;57.81
43741;BME280;29352;48.708;9.290;2022-09-19T05:30:52;98013.75;;;8.50;59.34
43741;BME280;29352;48.708;9.290;2022-09-19T05:33:22;98020.13;;;8.69;58.20
43741;BME280;29352;48.708;9.290;2022-09-19T05:35:54;98013.06;;;9.03;57.45
43741;BME280;29352;48.708;9.290;2022-09-19T05:38:26;98012.44;;;9.00;57.82
43741;BME280;29352;48.708;9.290;2022-09-19T05:41:01;98019.19;;;9.76;56.34
43741;BME280;29352;48.708;9.290;2022-09-19T05:43:29;98019.81;;;9.78;56.19
43741;BME280;29352;48.708;9.290;2022-09-19T05:45:56;98031.09;;;9.34;57.19
43741;BME280;29352;48.708;9.290;2022-09-19T05:48:24;98035.41;;;9.41;57.34
43741;BME280;29352;48.708;9.290;2022-09-19T05:50:51;98030.47;;;9.38;57.75
43741;BME280;29352;48.708;9.290;2022-09-19T05:53:19;98039.88;;;9.08;58.22
43741;BME280;29352;48.708;9.290;2022-09-19T05:56:06;98029.03;;;9.42;57.30
43741;BME280;29352;48.708;9.290;2022-09-19T05:58:33;98033.94;;;9.79;57.08
43741;BME280;29352;48.708;9.290;2022-09-19T06:01:10;98039.50;;;9.64;57.68
43741;BME280;29352;48.708;9.290;2022-09-19T06:03:37;98045.22;;;9.47;57.64
43741;BME280;29352;48.708;9.290;2022-09-19T06:06:09;98037.84;;;9.69;57.34
43741;BME280;29352;48.708;9.290;2022-09-19T06:08:37;98041.53;;;9.62;57.49
43741;BME280;29352;48.708;9.290;2022-09-19T06:11:04;98047.69;;;9.49;57.45
43741;BME280;29352;48.708;9.290;2022-09-19T06:13:30;98053.22;;;9.74;57.13
43741;BME280;29352;48.708;9.290;2022-09-19T06:16:15;98050.56;;;10.39;56.03
43741;BME280;29352;48.708;9.290;2022-09-19T06:18:42;98048.88;;;10.00;56.84
43741;BME280;29352;48.708;9.290;2022-09-19T06:21:08;98056.31;;;9.71;56.91
43741;BME280;29352;48.708;9.290;2022-09-19T06:23:34;98054.75;;;10.22;56.35
43741;BME280;29352;48.708;9.290;2022-09-19T06:26:00;98053.97;;;10.01;56.61
43741;BME280;29352;48.708;9.290;2022-09-19T06:28:25;98056.66;;;9.94;56.52
43741;BME280;29352;48.708;9.290;2022-09-19T06:30:51;98054.00;;;9.94;57.15
43741;BME280;29352;48.708;9.290;2022-09-19T06:33:16;98055.44;;;9.90;57.07
43741;BME280;29352;48.708;9.290;2022-09-19T06:35:42;98061.19;;;10.59;55.83
43741;BME280;29352;48.708;9.290;2022-09-19T06:38:10;98059.81;;;10.36;56.90
43741;BME280;29352;48.708;9.290;2022-09-19T06:40:36;98070.63;;;9.90;56.25
43741;BME280;29352;48.708;9.290;2022-09-19T06:43:05;98067.31;;;10.66;56.98
43741;BME280;29352;48.708;9.290;2022-09-19T06:45:33;98072.63;;;10.14;57.06
43741;BME280;29352;48.708;9.290;2022-09-19T06:48:04;98073.63;;;10.20;56.28
43741;BME280;29352;48.708;9.290;2022-09-19T06:50:31;98068.19;;;10.92;55.61
43741;BME280;29352;48.708;9.290;2022-09-19T06:52:57;98072.94;;;10.89;56.01
43741;BME280;29352;48.708;9.290;2022-09-19T06:55:24;98077.09;;;10.85;55.77
43741;BME280;29352;48.708;9.290;2022-09-19T06:58:00;98068.31;;;10.78;56.16
43741;BME280;29352;48.708;9.290;2022-09-19T07:00:31;98070.63;;;11.81;53.92
43741;BME280;29352;48.708;9.290;2022-09-19T07:03:08;98081.13;;;11.26;54.97
43741;BME280;29352;48.708;9.290;2022-09-19T07:05:38;98086.19;;;11.09;54.64
43741;BME280;29352;48.708;9.290;2022-09-19T07:08:08;98089.88;;;11.08;55.78
43741;BME280;29352;48.708;9.290;2022-09-19T07:10:36;98090.34;;;10.99;54.82
43741;BME280;29352;48.708;9.290;2022-09-19T07:13:03;98092.63;;;10.95;56.08
43741;BME280;29352;48.708;9.290;2022-09-19T07:15:36;98100.78;;;11.07;55.48
43741;BME280;29352;48.708;9.290;2022-09-19T07:18:05;98103.25;;;11.33;55.01
43741;BME280;29352;48.708;9.290;2022-09-19T07:20:36;98109.56;;;11.14;54.69
43741;BME280;29352;48.708;9.290;2022-09-19T07:23:13;98106.13;;;10.69;56.36
43741;BME280;29352;48.708;9.290;2022-09-19T07:25:39;98099.44;;;10.33;56.72
43741;BME280;29352;48.708;9.290;2022-09-19T07:28:08;98101.50;;;10.89;55.96
43741;BME280;29352;48.708;9.290;2022-09-19T07:30:36;98105.09;;;10.70;56.19
43741;BME280;29352;48.708;9.290;2022-09-19T07:33:05;98114.69;;;11.16;55.86
43741;BME280;29352;48.708;9.290;2022-09-19T07:35:37;98122.44;;;11.30;55.57
43741;BME280;29352;48.708;9.290;2022-09-19T07:38:06;98118.34;;;10.89;55.28
43741;BME280;29352;48.708;9.290;2022-09-19T07:40:33;98123.72;;;11.21;55.48
43741;BME280;29352;48.708;9.290;2022-09-19T07:42:59;98130.34;;;11.75;55.03
43741;BME280;29352;48.708;9.290;2022-09-19T07:45:29;98136.22;;;11.27;55.47
43741;BME280;29352;48.708;9.290;2022-09-19T07:47:58;98131.31;;;10.79;55.85
43741;BME280;29352;48.708;9.290;2022-09-19T07:50:23;98129.34;;;11.06;54.55
43741;BME280;29352;48.708;9.290;2022-09-19T07:52:58;98143.13;;;10.52;56.73
43741;BME280;29352;48.708;9.290;2022-09-19T07:55:24;98142.63;;;11.58;54.48
43741;BME280;29352;48.708;9.290;2022-09-19T07:57:52;98139.63;;;10.45;56.22
43741;BME280;29352;48.708;9.290;2022-09-19T08:00:20;98151.13;;;10.45;56.14
43741;BME280;29352;48.708;9.290;2022-09-19T08:02:56;98149.78;;;11.57;54.52
43741;BME280;29352;48.708;9.290;2022-09-19T08:05:33;98148.09;;;11.38;54.66
43741;BME280;29352;48.708;9.290;2022-09-19T08:08:00;98168.34;;;11.14;55.31
43741;BME280;29352;48.708;9.290;2022-09-19T08:10:26;98166.78;;;11.70;55.29
43741;BME280;29352;48.708;9.290;2022-09-19T08:12:52;98170.38;;;11.82;55.24
43741;BME280;29352;48.708;9.290;2022-09-19T08:15:19;98165.66;;;11.52;54.65
43741;BME280;29352;48.708;9.290;2022-09-19T08:17:59;98166.31;;;11.48;54.67
43741;BME280;29352;48.708;9.290;2022-09-19T08:20:39;98174.22;;;12.18;54.06
43741;BME280;29352;48.708;9.290;2022-09-19T08:25:36;98171.91;;;11.96;54.08
43741;BME280;29352;48.708;9.290;2022-09-19T08:28:04;98175.47;;;12.59;53.44
43741;BME280;29352;48.708;9.290;2022-09-19T08:30:31;98177.00;;;11.79;54.47
43741;BME280;29352;48.708;9.290;2022-09-19T08:33:01;98171.13;;;12.14;53.92
43741;BME280;29352;48.708;9.290;2022-09-19T08:35:29;98173.72;;;12.27;53.63
43741;BME280;29352;48.708;9.290;2022-09-19T08:37:59;98181.91;;;12.07;53.57
43741;BME280;29352;48.708;9.290;2022-09-19T08:40:32;98176.13;;;11.16;55.74
43741;BME280;29352;48.708;9.290;2022-09-19T08:43:07;98184.88;;;11.36;55.64
43741;BME280;29352;48.708;9.290;2022-09-19T08:48:48;98188.22;;;11.63;54.25
43741;BME280;29352;48.708;9.290;2022-09-19T08:54:28;98198.03;;;11.69;55.25
43741;BME280;29352;48.708;9.290;2022-09-19T08:56:59;98197.28;;;12.37;54.01
43741;BME280;29352;48.708;9.290;2022-09-19T08:59:33;98192.66;;;12.26;54.63
43741;BME280;29352;48.708;9.290;2022-09-19T09:05:12;98201.41;;;12.15;54.22
43741;BME280;29352;48.708;9.290;2022-09-19T09:13:48;98194.22;;;12.34;53.96
43741;BME280;29352;48.708;9.290;2022-09-19T09:16:38;98191.38;;;13.39;52.07
43741;BME280;29352;48.708;9.290;2022-09-19T09:19:51;98200.13;;;12.79;53.68
43741;BME280;29352;48.708;9.290;2022-09-19T09:22:40;98198.63;;;12.28;53.90
43741;BME280;29352;48.708;9.290;2022-09-19T09:25:15;98201.72;;;11.68;55.41
43741;BME280;29352;48.708;9.290;2022-09-19T09:27:54;98208.53;;;11.96;55.38
43741;BME280;29352;48.708;9.290;2022-09-19T09:30:24;98197.09;;;13.42;52.00
43741;BME280;29352;48.708;9.290;2022-09-19T09:33:05;98195.00;;;13.44;52.29
43741;BME280;29352;48.708;9.290;2022-09-19T09:36:11;98202.25;;;12.34;54.65
43741;BME280;29352;48.708;9.290;2022-09-19T09:38:51;98199.31;;;12.60;53.11
43741;BME280;29352;48.708;9.290;2022-09-19T09:41:40;98196.22;;;13.30;52.70
43741;BME280;29352;48.708;9.290;2022-09-19T09:49:14;98202.19;;;13.32;50.68
43741;BME280;29352;48.708;9.290;2022-09-19T09:55:16;98202.31;;;13.67;50.75
43741;BME280;29352;48.708;9.290;2022-09-19T09:58:28;98197.94;;;13.96;50.80
43741;BME280;29352;48.708;9.290;2022-09-19T10:01:30;98200.72;;;13.48;51.36
43741;BME280;29352;48.708;9.290;2022-09-19T10:04:48;98195.97;;;14.04;51.13
43741;BME280;29352;48.708;9.290;2022-09-19T10:10:08;98208.31;;;13.51;51.33
43741;BME280;29352;48.708;9.290;2022-09-19T10:12:46;98204.63;;;13.34;51.63
43741;BME280;29352;48.708;9.290;2022-09-19T10:15:24;98202.38;;;13.49;50.62
43741;BME280;29352;48.708;9.290;2022-09-19T10:18:01;98204.38;;;13.95;50.93
43741;BME280;29352;48.708;9.290;2022-09-19T10:20:43;98201.53;;;13.79;51.14
43741;BME280;29352;48.708;9.290;2022-09-19T10:23:16;98204.00;;;14.04;51.21
43741;BME280;29352;48.708;9.290;2022-09-19T10:25:51;98206.47;;;12.85;52.90
43741;BME280;29352;48.708;9.290;2022-09-19T10:31:00;98207.53;;;13.02;52.70
43741;BME280;29352;48.708;9.290;2022-09-19T10:33:45;98198.38;;;13.70;51.17
43741;BME280;29352;48.708;9.290;2022-09-19T10:36:21;98208.44;;;12.89;52.52
43741;BME280;29352;48.708;9.290;2022-09-19T10:38:55;98208.84;;;12.74;53.59
43741;BME280;29352;48.708;9.290;2022-09-19T10:41:27;98199.34;;;13.87;52.07
43741;BME280;29352;48.708;9.290;2022-09-19T10:44:05;98208.13;;;14.30;51.42
43741;BME280;29352;48.708;9.290;2022-09-19T10:46:47;98194.13;;;14.39;51.92
43741;BME280;29352;48.708;9.290;2022-09-19T10:49:23;98201.78;;;14.83;50.67
43741;BME280;29352;48.708;9.290;2022-09-19T10:51:53;98196.19;;;15.25;48.03
43741;BME280;29352;48.708;9.290;2022-09-19T10:57:02;98199.53;;;15.89;47.97
43741;BME280;29352;48.708;9.290;2022-09-19T10:59:34;98198.66;;;15.72;48.26
43741;BME280;29352;48.708;9.290;2022-09-19T11:05:02;98192.88;;;15.34;48.86
43741;BME280;29352;48.708;9.290;2022-09-19T11:07:44;98193.66;;;15.92;47.92
43741;BME280;29352;48.708;9.290;2022-09-19T11:10:35;98197.22;;;16.31;47.24
43741;BME280;29352;48.708;9.290;2022-09-19T11:18:40;98198.84;;;16.49;46.39
43741;BME280;29352;48.708;9.290;2022-09-19T11:30:34;98185.72;;;16.36;48.14
43741;BME280;29352;48.708;9.290;2022-09-19T11:33:41;98195.78;;;16.07;47.61
43741;BME280;29352;48.708;9.290;2022-09-19T11:37:13;98193.63;;;15.30;47.42
43741;BME280;29352;48.708;9.290;2022-09-19T11:40:16;98193.00;;;15.85;46.92
43741;BME280;29352;48.708;9.290;2022-09-19T11:58:39;98193.78;;;15.69;48.99
43741;BME280;29352;48.708;9.290;2022-09-19T12:04:40;98193.16;;;13.99;52.63
43741;BME280;29352;48.708;9.290;2022-09-19T12:07:25;98182.75;;;15.25;50.41
43741;BME280;29352;48.708;9.290;2022-09-19T12:10:28;98180.94;;;14.61;51.74
43741;BME280;29352;48.708;9.290;2022-09-19T12:13:18;98184.94;;;15.85;50.98
43741;BME280;29352;48.708;9.290;2022-09-19T12:15:55;98182.63;;;14.91;50.00
43741;BME280;29352;48.708;9.290;2022-09-19T12:18:47;98171.19;;;15.24;50.96
43741;BME280;29352;48.708;9.290;2022-09-19T12:21:22;98175.31;;;15.89;49.97
43741;BME280;29352;48.708;9.290;2022-09-19T12:23:59;98171.06;;;15.93;48.88
43741;BME280;29352;48.708;9.290;2022-09-19T12:32:56;98163.72;;;16.05;49.91
43741;BME280;29352;48.708;9.290;2022-09-19T12:38:49;98157.44;;;16.17;47.78
43741;BME280;29352;48.708;9.290;2022-09-19T12:46:52;98158.56;;;16.21;49.44
43741;BME280;29352;48.708;9.290;2022-09-19T12:50:04;98157.34;;;16.67;47.33
43741;BME280;29352;48.708;9.290;2022-09-19T12:52:36;98162.59;;;16.79;47.75
43741;BME280;29352;48.708;9.290;2022-09-19T12:55:29;98155.75;;;17.15;47.38
43741;BME280;29352;48.708;9.290;2022-09-19T12:58:19;98149.50;;;16.88;46.34
43741;BME280;29352;48.708;9.290;2022-09-19T13:01:04;98148.25;;;16.95;46.56
43741;BME280;29352;48.708;9.290;2022-09-19T13:06:37;98138.06;;;18.21;44.72
43741;BME280;29352;48.708;9.290;2022-09-19T13:09:26;98141.50;;;16.71;47.82
43741;BME280;29352;48.708;9.290;2022-09-19T13:17:19;98127.03;;;17.85;45.78
43741;BME280;29352;48.708;9.290;2022-09-19T13:20:16;98130.13;;;18.04;44.93
43741;BME280;29352;48.708;9.290;2022-09-19T13:23:30;98130.97;;;17.45;45.48
43741;BME280;29352;48.708;9.290;2022-09-19T13:28:55;98150.56;;;16.65;52.16
43741;BME280;29352;48.708;9.290;2022-09-19T13:31:55;98149.81;;;16.47;50.99
43741;BME280;29352;48.708;9.290;2022-09-19T13:34:37;98150.75;;;16.02;51.72
43741;BME280;29352;48.708;9.290;2022-09-19T13:43:00;98131.16;;;16.63;50.89
43741;BME280;29352;48.708;9.290;2022-09-19T13:48:53;98133.78;;;16.19;49.52
43741;BME280;29352;48.708;9.290;2022-09-19T13:52:26;98121.25;;;16.68;48.69
43741;BME280;29352;48.708;9.290;2022-09-19T13:55:06;98120.94;;;16.65;49.39
43741;BME280;29352;48.708;9.290;2022-09-19T13:58:27;98131.63;;;16.21;48.55
43741;BME280;29352;48.708;9.290;2022-09-19T14:03:41;98126.88;;;16.89;48.96
43741;BME280;29352;48.708;9.290;2022-09-19T14:06:19;98123.06;;;17.34;47.26
43741;BME280;29352;48.708;9.290;2022-09-19T14:09:14;98128.66;;;17.27;47.22
43741;BME280;29352;48.708;9.290;2022-09-19T14:11:58;98121.72;;;17.95;46.78
43741;BME280;29352;48.708;9.290;2022-09-19T14:17:30;98128.25;;;17.13;46.71
43741;BME280;29352;48.708;9.290;2022-09-19T14:19:59;98130.44;;;16.94;46.62
43741;BME280;29352;48.708;9.290;2022-09-19T14:22:40;98124.00;;;16.95;47.64
43741;BME280;29352;48.708;9.290;2022-09-19T14:27:59;98135.81;;;16.12;46.85
43741;BME280;29352;48.708;9.290;2022-09-19T14:39:47;98143.53;;;16.25;47.45
43741;BME280;29352;48.708;9.290;2022-09-19T14:46:06;98148.94;;;16.08;46.78
43741;BME280;29352;48.708;9.290;2022-09-19T14:51:53;98147.44;;;14.29;51.58
43741;BME280;29352;48.708;9.290;2022-09-19T14:54:35;98139.63;;;14.27;51.85
43741;BME280;29352;48.708;9.290;2022-09-19T14:57:46;98133.06;;;14.70;52.00
43741;BME280;29352;48.708;9.290;2022-09-19T15:00:21;98146.13;;;14.66;50.68
43741;BME280;29352;48.708;9.290;2022-09-19T15:02:50;98146.75;;;14.45;51.15
43741;BME280;29352;48.708;9.290;2022-09-19T15:05:27;98150.13;;;13.82;52.32
43741;BME280;29352;48.708;9.290;2022-09-19T15:07:56;98144.19;;;14.50;50.99
43741;BME280;29352;48.708;9.290;2022-09-19T15:10:29;98148.72;;;13.91;52.12
43741;BME280;29352;48.708;9.290;2022-09-19T15:15:45;98145.22;;;14.02;52.92
43741;BME280;29352;48.708;9.290;2022-09-19T15:18:23;98139.38;;;15.04;52.24
43741;BME280;29352;48.708;9.290;2022-09-19T15:21:02;98136.75;;;15.09;51.51
43741;BME280;29352;48.708;9.290;2022-09-19T15:23:36;98134.16;;;14.86;52.33
43741;BME280;29352;48.708;9.290;2022-09-19T15:26:08;98136.97;;;14.79;52.93
43741;BME280;29352;48.708;9.290;2022-09-19T15:28:39;98135.56;;;15.62;51.11
43741;BME280;29352;48.708;9.290;2022-09-19T15:33:47;98136.75;;;15.09;52.74
43741;BME280;29352;48.708;9.290;2022-09-19T15:36:20;98147.31;;;15.56;52.12
43741;BME280;29352;48.708;9.290;2022-09-19T15:38:52;98147.31;;;15.56;51.19
43741;BME280;29352;48.708;9.290;2022-09-19T15:41:22;98142.56;;;15.18;53.37
43741;BME280;29352;48.708;9.290;2022-09-19T15:43:51;98143.03;;;14.46;53.64
43741;BME280;29352;48.708;9.290;2022-09-19T15:48:53;98143.13;;;14.63;54.29
43741;BME280;29352;48.708;9.290;2022-09-19T15:51:37;98152.06;;;14.68;54.67
43741;BME280;29352;48.708;9.290;2022-09-19T15:54:16;98154.63;;;15.44;52.03
43741;BME280;29352;48.708;9.290;2022-09-19T15:56:48;98152.75;;;14.76;52.53
43741;BME280;29352;48.708;9.290;2022-09-19T15:59:21;98151.25;;;15.08;53.56
43741;BME280;29352;48.708;9.290;2022-09-19T16:01:58;98148.63;;;14.09;54.38
43741;BME280;29352;48.708;9.290;2022-09-19T16:04:36;98154.56;;;14.47;54.65
43741;BME280;29352;48.708;9.290;2022-09-19T16:07:24;98151.06;;;14.23;55.14
43741;BME280;29352;48.708;9.290;2022-09-19T16:10:17;98141.25;;;13.69;56.36
43741;BME280;29352;48.708;9.290;2022-09-19T16:12:49;98146.25;;;13.78;56.76
43741;BME280;29352;48.708;9.290;2022-09-19T16:15:36;98151.50;;;13.72;56.66
43741;BME280;29352;48.708;9.290;2022-09-19T16:18:15;98147.00;;;13.55;56.06
43741;BME280;29352;48.708;9.290;2022-09-19T16:23:39;98155.59;;;14.34;55.72
43741;BME280;29352;48.708;9.290;2022-09-19T16:26:12;98155.13;;;14.37;55.09
43741;BME280;29352;48.708;9.290;2022-09-19T16:28:51;98156.31;;;14.53;53.91
43741;BME280;29352;48.708;9.290;2022-09-19T16:31:38;98153.97;;;14.56;54.21
43741;BME280;29352;48.708;9.290;2022-09-19T16:37:03;98157.66;;;14.79;53.78
43741;BME280;29352;48.708;9.290;2022-09-19T16:42:01;98169.50;;;14.54;55.27
43741;BME280;29352;48.708;9.290;2022-09-19T16:44:47;98186.91;;;13.63;58.21